sensor_id;sensor_type;location;lat;lon;timestamp;P1;durP1;ratioP1;P2;durP2;ratioP2
79526;SDS011;68974;47.754;-3.364;2023-05-19T00:01:25;7.40;;;3.70;;
79526;SDS011;68974;47.754;-3.364;2023-05-19T00:03:53;11.27;;;3.88;;
79526;SDS011;68974;47.754;-3.364;2023-05-19T00:06:25;9.20;;;4.18;;
79526;SDS011;68974;47.754;-3.364;2023-05-19T00:11:23;7.07;;;3.65;;
79526;SDS011;68974;47.754;-3.364;2023-05-19T00:13:51;8.00;;;3.65;;
79526;SDS011;68974;47.754;-3.364;2023-05-19T00:16:17;8.23;;;4.43;;
79526;SDS011;68974;47.754;-3.364;2023-05-19T00:18:43;8.07;;;3.60;;
79526;SDS011;68974;47.754;-3.364;2023-05-19T00:21:08;5.97;;;3.58;;
79526;SDS011;68974;47.754;-3.364;2023-05-19T00:23:34;9.45;;;3.90;;
79526;SDS011;68974;47.754;-3.364;2023-05-19T00:25:59;7.97;;;3.70;;
79526;SDS011;68974;47.754;-3.364;2023-05-19T00:28:24;9.15;;;3.95;;
79526;SDS011;68974;47.754;-3.364;2023-05-19T00:30:50;7.72;;;2.95;;
79526;SDS011;68974;47.754;-3.364;2023-05-19T00:33:15;10.88;;;4.72;;
79526;SDS011;68974;47.754;-3.364;2023-05-19T00:35:41;8.82;;;3.90;;
79526;SDS011;68974;47.754;-3.364;2023-05-19T00:38:06;8.48;;;3.67;;
79526;SDS011;68974;47.754;-3.364;2023-05-19T00:40:33;8.30;;;4.30;;
79526;SDS011;68974;47.754;-3.364;2023-05-19T00:42:59;8.57;;;4.47;;
79526;SDS011;68974;47.754;-3.364;2023-05-19T00:45:25;8.90;;;4.25;;
79526;SDS011;68974;47.754;-3.364;2023-05-19T00:47:50;9.45;;;3.72;;
79526;SDS011;68974;47.754;-3.364;2023-05-19T00:50:15;10.68;;;4.88;;
79526;SDS011;68974;47.754;-3.364;2023-05-19T00:52:41;10.05;;;3.97;;
79526;SDS011;68974;47.754;-3.364;2023-05-19T00:55:06;6.63;;;3.80;;
79526;SDS011;68974;47.754;-3.364;2023-05-19T00:57:33;6.15;;;4.13;;
79526;SDS011;68974;47.754;-3.364;2023-05-19T00:59:59;8.52;;;4.13;;
79526;SDS011;68974;47.754;-3.364;2023-05-19T01:02:25;12.93;;;4.55;;
79526;SDS011;68974;47.754;-3.364;2023-05-19T01:04:53;8.68;;;4.45;;
79526;SDS011;68974;47.754;-3.364;2023-05-19T01:09:47;10.10;;;4.22;;
79526;SDS011;68974;47.754;-3.364;2023-05-19T01:12:13;11.38;;;4.30;;
79526;SDS011;68974;47.754;-3.364;2023-05-19T01:14:40;11.27;;;4.70;;
79526;SDS011;68974;47.754;-3.364;2023-05-19T01:17:13;8.65;;;4.38;;
79526;SDS011;68974;47.754;-3.364;2023-05-19T01:20:00;9.65;;;4.05;;
79526;SDS011;68974;47.754;-3.364;2023-05-19T01:25:35;10.88;;;4.90;;
79526;SDS011;68974;47.754;-3.364;2023-05-19T01:31:03;7.68;;;4.40;;
79526;SDS011;68974;47.754;-3.364;2023-05-19T01:33:31;10.93;;;4.57;;
79526;SDS011;68974;47.754;-3.364;2023-05-19T01:35:58;8.30;;;4.63;;
79526;SDS011;68974;47.754;-3.364;2023-05-19T01:38:27;9.77;;;4.60;;
79526;SDS011;68974;47.754;-3.364;2023-05-19T01:40:53;9.95;;;4.38;;
79526;SDS011;68974;47.754;-3.364;2023-05-19T01:43:22;9.25;;;4.18;;
79526;SDS011;68974;47.754;-3.364;2023-05-19T01:45:50;8.38;;;4.50;;
79526;SDS011;68974;47.754;-3.364;2023-05-19T01:48:16;9.18;;;4.40;;
79526;SDS011;68974;47.754;-3.364;2023-05-19T01:50:42;7.32;;;4.63;;
79526;SDS011;68974;47.754;-3.364;2023-05-19T01:53:08;7.60;;;4.30;;
79526;SDS011;68974;47.754;-3.364;2023-05-19T01:55:35;8.48;;;4.63;;
79526;SDS011;68974;47.754;-3.364;2023-05-19T02:06:17;9.38;;;4.65;;
79526;SDS011;68974;47.754;-3.364;2023-05-19T02:08:57;10.07;;;4.57;;
79526;SDS011;68974;47.754;-3.364;2023-05-19T02:11:32;8.05;;;4.93;;
79526;SDS011;68974;47.754;-3.364;2023-05-19T02:14:02;10.45;;;5.25;;
79526;SDS011;68974;47.754;-3.364;2023-05-19T02:16:32;10.57;;;4.28;;
79526;SDS011;68974;47.754;-3.364;2023-05-19T02:19:00;10.60;;;4.82;;
79526;SDS011;68974;47.754;-3.364;2023-05-19T02:21:25;13.15;;;4.95;;
79526;SDS011;68974;47.754;-3.364;2023-05-19T02:23:51;9.88;;;4.07;;
79526;SDS011;68974;47.754;-3.364;2023-05-19T02:26:16;13.57;;;5.10;;
79526;SDS011;68974;47.754;-3.364;2023-05-19T02:28:41;8.85;;;4.05;;
79526;SDS011;68974;47.754;-3.364;2023-05-19T02:31:07;7.57;;;4.13;;
79526;SDS011;68974;47.754;-3.364;2023-05-19T02:33:34;8.98;;;4.93;;
79526;SDS011;68974;47.754;-3.364;2023-05-19T02:36:00;10.88;;;4.35;;
79526;SDS011;68974;47.754;-3.364;2023-05-19T02:38:25;12.25;;;4.60;;
79526;SDS011;68974;47.754;-3.364;2023-05-19T02:40:51;13.80;;;4.63;;
79526;SDS011;68974;47.754;-3.364;2023-05-19T02:43:17;12.20;;;4.25;;
79526;SDS011;68974;47.754;-3.364;2023-05-19T02:45:43;8.43;;;3.97;;
79526;SDS011;68974;47.754;-3.364;2023-05-19T02:48:08;8.85;;;4.22;;
79526;SDS011;68974;47.754;-3.364;2023-05-19T02:50:34;9.57;;;3.85;;
79526;SDS011;68974;47.754;-3.364;2023-05-19T02:53:00;10.65;;;4.38;;
79526;SDS011;68974;47.754;-3.364;2023-05-19T02:55:26;10.60;;;4.45;;
79526;SDS011;68974;47.754;-3.364;2023-05-19T02:57:51;7.78;;;3.60;;
79526;SDS011;68974;47.754;-3.364;2023-05-19T03:00:17;9.18;;;4.10;;
79526;SDS011;68974;47.754;-3.364;2023-05-19T03:02:42;8.38;;;3.88;;
79526;SDS011;68974;47.754;-3.364;2023-05-19T03:05:08;10.85;;;3.85;;
79526;SDS011;68974;47.754;-3.364;2023-05-19T03:07:34;10.25;;;4.38;;
79526;SDS011;68974;47.754;-3.364;2023-05-19T03:10:00;11.82;;;4.20;;
79526;SDS011;68974;47.754;-3.364;2023-05-19T03:12:30;10.13;;;4.18;;
79526;SDS011;68974;47.754;-3.364;2023-05-19T03:14:57;10.82;;;3.78;;
79526;SDS011;68974;47.754;-3.364;2023-05-19T03:17:23;11.18;;;4.10;;
79526;SDS011;68974;47.754;-3.364;2023-05-19T03:19:48;10.57;;;3.77;;
79526;SDS011;68974;47.754;-3.364;2023-05-19T03:22:15;8.50;;;3.67;;
79526;SDS011;68974;47.754;-3.364;2023-05-19T03:24:42;8.77;;;4.43;;
79526;SDS011;68974;47.754;-3.364;2023-05-19T03:27:07;10.50;;;3.85;;
79526;SDS011;68974;47.754;-3.364;2023-05-19T03:29:33;7.37;;;3.43;;
79526;SDS011;68974;47.754;-3.364;2023-05-19T03:31:58;8.45;;;5.30;;
79526;SDS011;68974;47.754;-3.364;2023-05-19T03:34:23;10.35;;;4.30;;
79526;SDS011;68974;47.754;-3.364;2023-05-19T03:36:49;8.85;;;3.78;;
79526;SDS011;68974;47.754;-3.364;2023-05-19T03:39:15;9.25;;;4.40;;
79526;SDS011;68974;47.754;-3.364;2023-05-19T03:41:40;8.52;;;4.50;;
79526;SDS011;68974;47.754;-3.364;2023-05-19T03:44:06;9.40;;;3.55;;
79526;SDS011;68974;47.754;-3.364;2023-05-19T03:46:31;8.02;;;4.03;;
79526;SDS011;68974;47.754;-3.364;2023-05-19T03:48:57;10.98;;;4.28;;
79526;SDS011;68974;47.754;-3.364;2023-05-19T03:51:22;9.52;;;4.25;;
79526;SDS011;68974;47.754;-3.364;2023-05-19T03:53:48;8.55;;;4.50;;
79526;SDS011;68974;47.754;-3.364;2023-05-19T03:56:13;11.52;;;4.25;;
79526;SDS011;68974;47.754;-3.364;2023-05-19T03:58:40;8.13;;;3.90;;
79526;SDS011;68974;47.754;-3.364;2023-05-19T04:03:33;8.43;;;4.00;;
79526;SDS011;68974;47.754;-3.364;2023-05-19T04:05:58;10.50;;;5.18;;
79526;SDS011;68974;47.754;-3.364;2023-05-19T04:08:24;8.15;;;3.85;;
79526;SDS011;68974;47.754;-3.364;2023-05-19T04:10:50;12.80;;;4.32;;
79526;SDS011;68974;47.754;-3.364;2023-05-19T04:13:15;9.25;;;4.40;;
79526;SDS011;68974;47.754;-3.364;2023-05-19T04:15:40;9.02;;;4.65;;
79526;SDS011;68974;47.754;-3.364;2023-05-19T04:18:06;11.38;;;4.15;;
79526;SDS011;68974;47.754;-3.364;2023-05-19T04:20:31;10.20;;;4.40;;
79526;SDS011;68974;47.754;-3.364;2023-05-19T04:22:57;9.47;;;4.37;;
79526;SDS011;68974;47.754;-3.364;2023-05-19T04:25:22;8.15;;;4.72;;
79526;SDS011;68974;47.754;-3.364;2023-05-19T04:27:49;10.38;;;4.85;;
79526;SDS011;68974;47.754;-3.364;2023-05-19T04:30:14;10.65;;;4.68;;
79526;SDS011;68974;47.754;-3.364;2023-05-19T04:32:46;8.13;;;4.47;;
79526;SDS011;68974;47.754;-3.364;2023-05-19T04:35:13;7.85;;;4.65;;
79526;SDS011;68974;47.754;-3.364;2023-05-19T04:37:39;7.78;;;4.28;;
79526;SDS011;68974;47.754;-3.364;2023-05-19T04:40:04;7.78;;;4.35;;
79526;SDS011;68974;47.754;-3.364;2023-05-19T04:42:33;9.18;;;3.65;;
79526;SDS011;68974;47.754;-3.364;2023-05-19T04:44:58;10.38;;;4.18;;
79526;SDS011;68974;47.754;-3.364;2023-05-19T04:47:24;13.45;;;4.80;;
79526;SDS011;68974;47.754;-3.364;2023-05-19T04:49:51;7.50;;;4.40;;
79526;SDS011;68974;47.754;-3.364;2023-05-19T04:52:19;7.40;;;4.03;;
79526;SDS011;68974;47.754;-3.364;2023-05-19T04:54:46;8.18;;;5.00;;
79526;SDS011;68974;47.754;-3.364;2023-05-19T04:57:11;8.43;;;4.32;;
79526;SDS011;68974;47.754;-3.364;2023-05-19T04:59:36;7.97;;;4.43;;
79526;SDS011;68974;47.754;-3.364;2023-05-19T05:02:02;7.35;;;3.70;;
79526;SDS011;68974;47.754;-3.364;2023-05-19T05:04:28;10.70;;;4.28;;
79526;SDS011;68974;47.754;-3.364;2023-05-19T05:06:53;8.73;;;4.15;;
79526;SDS011;68974;47.754;-3.364;2023-05-19T05:09:19;8.02;;;3.80;;
79526;SDS011;68974;47.754;-3.364;2023-05-19T05:11:44;8.00;;;3.60;;
79526;SDS011;68974;47.754;-3.364;2023-05-19T05:14:10;7.65;;;4.05;;
79526;SDS011;68974;47.754;-3.364;2023-05-19T05:16:36;9.52;;;4.40;;
79526;SDS011;68974;47.754;-3.364;2023-05-19T05:19:01;8.43;;;4.60;;
79526;SDS011;68974;47.754;-3.364;2023-05-19T05:21:27;10.80;;;4.35;;
79526;SDS011;68974;47.754;-3.364;2023-05-19T05:23:53;7.65;;;4.38;;
79526;SDS011;68974;47.754;-3.364;2023-05-19T05:26:20;8.13;;;4.45;;
79526;SDS011;68974;47.754;-3.364;2023-05-19T05:28:47;9.55;;;4.43;;
79526;SDS011;68974;47.754;-3.364;2023-05-19T05:31:15;8.82;;;4.07;;
79526;SDS011;68974;47.754;-3.364;2023-05-19T05:33:41;7.50;;;4.65;;
79526;SDS011;68974;47.754;-3.364;2023-05-19T05:36:07;9.70;;;5.63;;
79526;SDS011;68974;47.754;-3.364;2023-05-19T05:38:32;9.20;;;4.93;;
79526;SDS011;68974;47.754;-3.364;2023-05-19T05:40:58;13.63;;;5.90;;
79526;SDS011;68974;47.754;-3.364;2023-05-19T05:43:23;10.20;;;5.30;;
79526;SDS011;68974;47.754;-3.364;2023-05-19T05:45:48;7.40;;;4.68;;
79526;SDS011;68974;47.754;-3.364;2023-05-19T05:48:14;11.35;;;5.57;;
79526;SDS011;68974;47.754;-3.364;2023-05-19T05:50:42;13.25;;;5.85;;
79526;SDS011;68974;47.754;-3.364;2023-05-19T05:53:08;12.55;;;5.72;;
79526;SDS011;68974;47.754;-3.364;2023-05-19T05:55:36;13.90;;;6.93;;
79526;SDS011;68974;47.754;-3.364;2023-05-19T05:58:02;10.75;;;5.95;;
79526;SDS011;68974;47.754;-3.364;2023-05-19T06:00:27;13.23;;;6.68;;
79526;SDS011;68974;47.754;-3.364;2023-05-19T06:02:53;15.70;;;7.72;;
79526;SDS011;68974;47.754;-3.364;2023-05-19T06:05:19;11.88;;;6.78;;
79526;SDS011;68974;47.754;-3.364;2023-05-19T06:07:44;13.30;;;7.10;;
79526;SDS011;68974;47.754;-3.364;2023-05-19T06:10:10;13.10;;;7.18;;
79526;SDS011;68974;47.754;-3.364;2023-05-19T06:12:36;12.43;;;6.35;;
79526;SDS011;68974;47.754;-3.364;2023-05-19T06:15:05;13.45;;;7.40;;
79526;SDS011;68974;47.754;-3.364;2023-05-19T06:17:31;13.25;;;6.93;;
79526;SDS011;68974;47.754;-3.364;2023-05-19T06:19:59;13.65;;;6.47;;
79526;SDS011;68974;47.754;-3.364;2023-05-19T06:22:25;14.00;;;6.85;;
79526;SDS011;68974;47.754;-3.364;2023-05-19T06:24:51;10.98;;;6.97;;
79526;SDS011;68974;47.754;-3.364;2023-05-19T06:27:17;11.75;;;7.00;;
79526;SDS011;68974;47.754;-3.364;2023-05-19T06:29:42;10.57;;;7.07;;
79526;SDS011;68974;47.754;-3.364;2023-05-19T06:32:08;11.10;;;6.75;;
79526;SDS011;68974;47.754;-3.364;2023-05-19T06:34:33;13.18;;;6.82;;
79526;SDS011;68974;47.754;-3.364;2023-05-19T06:36:58;13.82;;;7.25;;
79526;SDS011;68974;47.754;-3.364;2023-05-19T06:39:27;14.63;;;6.93;;
79526;SDS011;68974;47.754;-3.364;2023-05-19T06:41:52;18.38;;;7.47;;
79526;SDS011;68974;47.754;-3.364;2023-05-19T06:44:18;15.43;;;6.80;;
79526;SDS011;68974;47.754;-3.364;2023-05-19T06:46:43;14.45;;;7.18;;
79526;SDS011;68974;47.754;-3.364;2023-05-19T06:49:09;14.73;;;8.63;;
79526;SDS011;68974;47.754;-3.364;2023-05-19T06:51:35;11.88;;;6.45;;
79526;SDS011;68974;47.754;-3.364;2023-05-19T06:54:00;15.73;;;6.95;;
79526;SDS011;68974;47.754;-3.364;2023-05-19T06:56:26;12.40;;;7.47;;
79526;SDS011;68974;47.754;-3.364;2023-05-19T06:58:51;12.38;;;6.55;;
79526;SDS011;68974;47.754;-3.364;2023-05-19T07:01:16;10.30;;;5.60;;
79526;SDS011;68974;47.754;-3.364;2023-05-19T07:03:42;13.15;;;6.55;;
79526;SDS011;68974;47.754;-3.364;2023-05-19T07:06:08;11.80;;;5.93;;
79526;SDS011;68974;47.754;-3.364;2023-05-19T07:08:33;9.63;;;5.90;;
79526;SDS011;68974;47.754;-3.364;2023-05-19T07:13:26;12.23;;;6.57;;
79526;SDS011;68974;47.754;-3.364;2023-05-19T07:15:51;14.43;;;6.07;;
79526;SDS011;68974;47.754;-3.364;2023-05-19T07:18:19;14.82;;;6.30;;
79526;SDS011;68974;47.754;-3.364;2023-05-19T07:20:45;7.97;;;5.35;;
79526;SDS011;68974;47.754;-3.364;2023-05-19T07:23:11;12.00;;;5.53;;
79526;SDS011;68974;47.754;-3.364;2023-05-19T07:25:36;11.48;;;5.75;;
79526;SDS011;68974;47.754;-3.364;2023-05-19T07:28:01;9.10;;;4.65;;
79526;SDS011;68974;47.754;-3.364;2023-05-19T07:30:27;8.32;;;4.65;;
79526;SDS011;68974;47.754;-3.364;2023-05-19T07:32:53;8.82;;;4.75;;
79526;SDS011;68974;47.754;-3.364;2023-05-19T07:35:19;10.32;;;4.97;;
79526;SDS011;68974;47.754;-3.364;2023-05-19T07:37:46;8.45;;;4.25;;
79526;SDS011;68974;47.754;-3.364;2023-05-19T07:40:12;9.18;;;4.50;;
79526;SDS011;68974;47.754;-3.364;2023-05-19T07:42:38;6.53;;;3.90;;
79526;SDS011;68974;47.754;-3.364;2023-05-19T07:45:04;8.18;;;3.92;;
79526;SDS011;68974;47.754;-3.364;2023-05-19T07:47:29;7.97;;;3.53;;
79526;SDS011;68974;47.754;-3.364;2023-05-19T07:49:55;8.30;;;3.25;;
79526;SDS011;68974;47.754;-3.364;2023-05-19T07:52:20;6.82;;;4.13;;
79526;SDS011;68974;47.754;-3.364;2023-05-19T07:54:46;12.52;;;3.40;;
79526;SDS011;68974;47.754;-3.364;2023-05-19T07:57:11;9.15;;;4.03;;
79526;SDS011;68974;47.754;-3.364;2023-05-19T07:59:38;6.03;;;3.55;;
79526;SDS011;68974;47.754;-3.364;2023-05-19T08:02:04;7.38;;;3.42;;
79526;SDS011;68974;47.754;-3.364;2023-05-19T08:04:30;7.28;;;3.13;;
79526;SDS011;68974;47.754;-3.364;2023-05-19T08:06:55;10.43;;;3.50;;
79526;SDS011;68974;47.754;-3.364;2023-05-19T08:09:21;7.25;;;3.33;;
79526;SDS011;68974;47.754;-3.364;2023-05-19T08:11:46;7.85;;;3.78;;
79526;SDS011;68974;47.754;-3.364;2023-05-19T08:14:12;7.20;;;2.83;;
79526;SDS011;68974;47.754;-3.364;2023-05-19T08:16:37;12.43;;;5.15;;
79526;SDS011;68974;47.754;-3.364;2023-05-19T08:19:02;8.85;;;3.00;;
79526;SDS011;68974;47.754;-3.364;2023-05-19T08:21:29;6.20;;;2.88;;
79526;SDS011;68974;47.754;-3.364;2023-05-19T08:23:58;6.15;;;3.22;;
79526;SDS011;68974;47.754;-3.364;2023-05-19T08:26:25;7.78;;;3.72;;
79526;SDS011;68974;47.754;-3.364;2023-05-19T08:28:51;6.50;;;3.38;;
79526;SDS011;68974;47.754;-3.364;2023-05-19T08:31:16;7.82;;;3.38;;
79526;SDS011;68974;47.754;-3.364;2023-05-19T08:33:42;7.40;;;3.70;;
79526;SDS011;68974;47.754;-3.364;2023-05-19T08:36:07;8.13;;;3.60;;
79526;SDS011;68974;47.754;-3.364;2023-05-19T08:38:33;8.82;;;3.55;;
79526;SDS011;68974;47.754;-3.364;2023-05-19T08:40:58;7.00;;;3.67;;
79526;SDS011;68974;47.754;-3.364;2023-05-19T08:43:24;7.47;;;3.58;;
79526;SDS011;68974;47.754;-3.364;2023-05-19T08:45:49;8.35;;;4.25;;
79526;SDS011;68974;47.754;-3.364;2023-05-19T08:48:18;7.30;;;3.53;;
79526;SDS011;68974;47.754;-3.364;2023-05-19T08:50:45;6.22;;;4.22;;
79526;SDS011;68974;47.754;-3.364;2023-05-19T08:53:36;9.77;;;4.47;;
79526;SDS011;68974;47.754;-3.364;2023-05-19T08:56:09;8.43;;;3.80;;
79526;SDS011;68974;47.754;-3.364;2023-05-19T08:58:40;6.95;;;3.70;;
79526;SDS011;68974;47.754;-3.364;2023-05-19T09:01:08;7.45;;;3.72;;
79526;SDS011;68974;47.754;-3.364;2023-05-19T09:03:35;7.15;;;4.60;;
79526;SDS011;68974;47.754;-3.364;2023-05-19T09:08:36;5.72;;;3.97;;
79526;SDS011;68974;47.754;-3.364;2023-05-19T09:11:02;8.82;;;4.18;;
79526;SDS011;68974;47.754;-3.364;2023-05-19T09:13:28;7.55;;;4.10;;
79526;SDS011;68974;47.754;-3.364;2023-05-19T09:15:54;7.65;;;3.92;;
79526;SDS011;68974;47.754;-3.364;2023-05-19T09:18:22;5.90;;;3.67;;
79526;SDS011;68974;47.754;-3.364;2023-05-19T09:20:48;7.28;;;3.90;;
79526;SDS011;68974;47.754;-3.364;2023-05-19T09:23:15;5.25;;;3.65;;
79526;SDS011;68974;47.754;-3.364;2023-05-19T09:25:48;5.80;;;4.40;;
79526;SDS011;68974;47.754;-3.364;2023-05-19T09:28:14;5.82;;;4.38;;
79526;SDS011;68974;47.754;-3.364;2023-05-19T09:31:07;6.55;;;4.32;;
79526;SDS011;68974;47.754;-3.364;2023-05-19T09:33:34;6.50;;;3.42;;
79526;SDS011;68974;47.754;-3.364;2023-05-19T09:36:01;6.75;;;5.03;;
79526;SDS011;68974;47.754;-3.364;2023-05-19T09:38:29;7.70;;;3.65;;
79526;SDS011;68974;47.754;-3.364;2023-05-19T09:40:55;5.70;;;4.00;;
79526;SDS011;68974;47.754;-3.364;2023-05-19T09:43:22;8.93;;;4.47;;
79526;SDS011;68974;47.754;-3.364;2023-05-19T09:45:48;6.70;;;4.10;;
79526;SDS011;68974;47.754;-3.364;2023-05-19T09:48:19;6.30;;;4.43;;
79526;SDS011;68974;47.754;-3.364;2023-05-19T09:50:44;7.53;;;3.95;;
79526;SDS011;68974;47.754;-3.364;2023-05-19T09:53:13;5.78;;;3.25;;
79526;SDS011;68974;47.754;-3.364;2023-05-19T09:55:40;6.03;;;3.60;;
79526;SDS011;68974;47.754;-3.364;2023-05-19T09:58:07;8.82;;;4.35;;
79526;SDS011;68974;47.754;-3.364;2023-05-19T10:00:33;6.57;;;3.10;;
79526;SDS011;68974;47.754;-3.364;2023-05-19T10:02:58;5.65;;;3.42;;
79526;SDS011;68974;47.754;-3.364;2023-05-19T10:05:25;6.65;;;3.50;;
79526;SDS011;68974;47.754;-3.364;2023-05-19T10:07:52;7.55;;;3.90;;
79526;SDS011;68974;47.754;-3.364;2023-05-19T10:10:18;6.30;;;3.75;;
79526;SDS011;68974;47.754;-3.364;2023-05-19T10:12:49;6.55;;;3.25;;
79526;SDS011;68974;47.754;-3.364;2023-05-19T10:15:15;6.13;;;3.47;;
79526;SDS011;68974;47.754;-3.364;2023-05-19T10:17:42;5.40;;;3.38;;
79526;SDS011;68974;47.754;-3.364;2023-05-19T10:20:09;6.80;;;3.65;;
79526;SDS011;68974;47.754;-3.364;2023-05-19T10:22:39;5.05;;;3.97;;
79526;SDS011;68974;47.754;-3.364;2023-05-19T10:25:07;4.47;;;3.63;;
79526;SDS011;68974;47.754;-3.364;2023-05-19T10:27:35;5.47;;;3.60;;
79526;SDS011;68974;47.754;-3.364;2023-05-19T10:30:04;5.45;;;3.80;;
79526;SDS011;68974;47.754;-3.364;2023-05-19T10:32:34;5.40;;;3.33;;
79526;SDS011;68974;47.754;-3.364;2023-05-19T10:40:50;4.95;;;3.70;;
79526;SDS011;68974;47.754;-3.364;2023-05-19T10:46:05;7.45;;;4.20;;
79526;SDS011;68974;47.754;-3.364;2023-05-19T10:48:33;6.80;;;4.60;;
79526;SDS011;68974;47.754;-3.364;2023-05-19T10:51:01;7.53;;;4.18;;
79526;SDS011;68974;47.754;-3.364;2023-05-19T10:53:31;5.97;;;3.60;;
79526;SDS011;68974;47.754;-3.364;2023-05-19T10:55:58;5.35;;;3.45;;
79526;SDS011;68974;47.754;-3.364;2023-05-19T11:01:12;5.50;;;4.47;;
79526;SDS011;68974;47.754;-3.364;2023-05-19T11:03:49;6.72;;;4.30;;
79526;SDS011;68974;47.754;-3.364;2023-05-19T11:06:18;4.35;;;3.47;;
79526;SDS011;68974;47.754;-3.364;2023-05-19T11:08:56;5.35;;;3.75;;
79526;SDS011;68974;47.754;-3.364;2023-05-19T11:11:26;5.35;;;3.33;;
79526;SDS011;68974;47.754;-3.364;2023-05-19T11:14:10;6.40;;;3.80;;
79526;SDS011;68974;47.754;-3.364;2023-05-19T11:16:37;5.63;;;3.88;;
79526;SDS011;68974;47.754;-3.364;2023-05-19T11:19:05;6.78;;;4.07;;
79526;SDS011;68974;47.754;-3.364;2023-05-19T11:26:58;6.82;;;4.25;;
79526;SDS011;68974;47.754;-3.364;2023-05-19T11:29:24;5.93;;;4.50;;
79526;SDS011;68974;47.754;-3.364;2023-05-19T11:31:50;4.65;;;3.63;;
79526;SDS011;68974;47.754;-3.364;2023-05-19T11:34:16;6.57;;;3.85;;
79526;SDS011;68974;47.754;-3.364;2023-05-19T11:36:42;6.55;;;4.32;;
79526;SDS011;68974;47.754;-3.364;2023-05-19T11:39:09;5.95;;;4.15;;
79526;SDS011;68974;47.754;-3.364;2023-05-19T11:41:38;4.90;;;4.28;;
79526;SDS011;68974;47.754;-3.364;2023-05-19T11:44:08;6.25;;;4.32;;
79526;SDS011;68974;47.754;-3.364;2023-05-19T11:46:34;6.47;;;4.35;;
79526;SDS011;68974;47.754;-3.364;2023-05-19T11:49:00;5.45;;;3.72;;
79526;SDS011;68974;47.754;-3.364;2023-05-19T11:51:26;5.03;;;3.90;;
79526;SDS011;68974;47.754;-3.364;2023-05-19T11:53:51;6.57;;;4.65;;
79526;SDS011;68974;47.754;-3.364;2023-05-19T11:56:18;8.00;;;3.90;;
79526;SDS011;68974;47.754;-3.364;2023-05-19T12:03:35;6.47;;;4.37;;
79526;SDS011;68974;47.754;-3.364;2023-05-19T12:06:01;7.07;;;4.38;;
79526;SDS011;68974;47.754;-3.364;2023-05-19T12:08:28;7.00;;;4.15;;
79526;SDS011;68974;47.754;-3.364;2023-05-19T12:10:53;6.15;;;3.80;;
79526;SDS011;68974;47.754;-3.364;2023-05-19T12:13:20;4.32;;;3.72;;
79526;SDS011;68974;47.754;-3.364;2023-05-19T12:15:46;9.05;;;4.47;;
79526;SDS011;68974;47.754;-3.364;2023-05-19T12:18:12;6.70;;;4.10;;
79526;SDS011;68974;47.754;-3.364;2023-05-19T12:20:37;5.22;;;4.22;;
79526;SDS011;68974;47.754;-3.364;2023-05-19T12:23:03;4.43;;;3.95;;
79526;SDS011;68974;47.754;-3.364;2023-05-19T12:25:29;4.22;;;3.60;;
79526;SDS011;68974;47.754;-3.364;2023-05-19T12:27:59;10.00;;;4.15;;
79526;SDS011;68974;47.754;-3.364;2023-05-19T12:30:29;8.52;;;4.70;;
79526;SDS011;68974;47.754;-3.364;2023-05-19T12:32:55;4.18;;;3.67;;
79526;SDS011;68974;47.754;-3.364;2023-05-19T12:35:25;7.40;;;4.63;;
79526;SDS011;68974;47.754;-3.364;2023-05-19T12:37:54;7.78;;;4.43;;
79526;SDS011;68974;47.754;-3.364;2023-05-19T12:40:20;4.88;;;3.85;;
79526;SDS011;68974;47.754;-3.364;2023-05-19T12:42:46;4.57;;;3.80;;
79526;SDS011;68974;47.754;-3.364;2023-05-19T12:45:12;5.15;;;3.63;;
79526;SDS011;68974;47.754;-3.364;2023-05-19T12:47:38;4.07;;;3.13;;
79526;SDS011;68974;47.754;-3.364;2023-05-19T12:55:02;5.40;;;3.60;;
79526;SDS011;68974;47.754;-3.364;2023-05-19T12:57:42;6.45;;;3.60;;
79526;SDS011;68974;47.754;-3.364;2023-05-19T13:00:18;6.10;;;3.67;;
79526;SDS011;68974;47.754;-3.364;2023-05-19T13:05:24;7.00;;;3.53;;
79526;SDS011;68974;47.754;-3.364;2023-05-19T13:10:19;5.97;;;3.17;;
79526;SDS011;68974;47.754;-3.364;2023-05-19T13:12:45;6.03;;;3.47;;
79526;SDS011;68974;47.754;-3.364;2023-05-19T13:15:10;4.07;;;3.58;;
79526;SDS011;68974;47.754;-3.364;2023-05-19T13:17:36;5.18;;;3.60;;
79526;SDS011;68974;47.754;-3.364;2023-05-19T13:20:01;6.22;;;3.95;;
79526;SDS011;68974;47.754;-3.364;2023-05-19T13:22:28;6.70;;;3.40;;
79526;SDS011;68974;47.754;-3.364;2023-05-19T13:24:54;4.93;;;3.58;;
79526;SDS011;68974;47.754;-3.364;2023-05-19T13:27:22;6.18;;;3.78;;
79526;SDS011;68974;47.754;-3.364;2023-05-19T13:29:48;5.35;;;3.75;;
79526;SDS011;68974;47.754;-3.364;2023-05-19T13:32:14;4.85;;;3.50;;
79526;SDS011;68974;47.754;-3.364;2023-05-19T13:34:40;8.10;;;4.97;;
79526;SDS011;68974;47.754;-3.364;2023-05-19T13:37:05;7.07;;;3.97;;
79526;SDS011;68974;47.754;-3.364;2023-05-19T13:39:33;5.40;;;3.38;;
79526;SDS011;68974;47.754;-3.364;2023-05-19T13:41:59;6.03;;;3.90;;
79526;SDS011;68974;47.754;-3.364;2023-05-19T13:44:25;5.40;;;3.78;;
79526;SDS011;68974;47.754;-3.364;2023-05-19T13:46:50;4.85;;;3.72;;
79526;SDS011;68974;47.754;-3.364;2023-05-19T13:49:15;7.10;;;4.00;;
79526;SDS011;68974;47.754;-3.364;2023-05-19T13:51:41;5.88;;;3.80;;
79526;SDS011;68974;47.754;-3.364;2023-05-19T13:54:07;4.50;;;3.58;;
79526;SDS011;68974;47.754;-3.364;2023-05-19T13:56:32;5.43;;;4.13;;
79526;SDS011;68974;47.754;-3.364;2023-05-19T13:58:58;5.30;;;3.42;;
79526;SDS011;68974;47.754;-3.364;2023-05-19T14:01:23;4.57;;;3.03;;
79526;SDS011;68974;47.754;-3.364;2023-05-19T14:03:49;5.18;;;3.50;;
79526;SDS011;68974;47.754;-3.364;2023-05-19T14:06:14;6.85;;;3.90;;
79526;SDS011;68974;47.754;-3.364;2023-05-19T14:08:40;9.00;;;4.47;;
79526;SDS011;68974;47.754;-3.364;2023-05-19T14:11:06;7.53;;;4.05;;
79526;SDS011;68974;47.754;-3.364;2023-05-19T14:13:31;5.78;;;4.28;;
79526;SDS011;68974;47.754;-3.364;2023-05-19T14:15:57;4.60;;;3.45;;
79526;SDS011;68974;47.754;-3.364;2023-05-19T14:18:22;5.55;;;4.00;;
79526;SDS011;68974;47.754;-3.364;2023-05-19T14:20:47;6.70;;;4.05;;
79526;SDS011;68974;47.754;-3.364;2023-05-19T14:23:13;4.70;;;4.13;;
79526;SDS011;68974;47.754;-3.364;2023-05-19T14:25:40;5.32;;;4.15;;
79526;SDS011;68974;47.754;-3.364;2023-05-19T14:28:06;6.35;;;4.32;;
79526;SDS011;68974;47.754;-3.364;2023-05-19T14:30:32;5.22;;;3.28;;
79526;SDS011;68974;47.754;-3.364;2023-05-19T14:32:57;5.65;;;3.83;;
79526;SDS011;68974;47.754;-3.364;2023-05-19T14:35:23;7.45;;;3.60;;
79526;SDS011;68974;47.754;-3.364;2023-05-19T14:37:48;6.97;;;3.88;;
79526;SDS011;68974;47.754;-3.364;2023-05-19T14:40:14;5.53;;;3.78;;
79526;SDS011;68974;47.754;-3.364;2023-05-19T14:42:40;5.95;;;3.85;;
79526;SDS011;68974;47.754;-3.364;2023-05-19T14:45:05;5.30;;;4.15;;
79526;SDS011;68974;47.754;-3.364;2023-05-19T14:47:31;5.60;;;3.70;;
79526;SDS011;68974;47.754;-3.364;2023-05-19T14:49:56;4.57;;;3.40;;
79526;SDS011;68974;47.754;-3.364;2023-05-19T14:52:22;4.72;;;3.40;;
79526;SDS011;68974;47.754;-3.364;2023-05-19T14:54:47;6.60;;;3.88;;
79526;SDS011;68974;47.754;-3.364;2023-05-19T14:57:12;7.38;;;3.70;;
79526;SDS011;68974;47.754;-3.364;2023-05-19T14:59:38;5.57;;;3.63;;
79526;SDS011;68974;47.754;-3.364;2023-05-19T15:02:03;6.65;;;3.65;;
79526;SDS011;68974;47.754;-3.364;2023-05-19T15:04:29;5.47;;;3.30;;
79526;SDS011;68974;47.754;-3.364;2023-05-19T15:06:54;6.50;;;3.90;;
79526;SDS011;68974;47.754;-3.364;2023-05-19T15:11:47;5.27;;;3.73;;
79526;SDS011;68974;47.754;-3.364;2023-05-19T15:14:12;4.47;;;3.60;;
79526;SDS011;68974;47.754;-3.364;2023-05-19T15:16:37;5.18;;;3.60;;
79526;SDS011;68974;47.754;-3.364;2023-05-19T15:19:03;5.88;;;3.85;;
79526;SDS011;68974;47.754;-3.364;2023-05-19T15:21:28;4.90;;;3.60;;
79526;SDS011;68974;47.754;-3.364;2023-05-19T15:23:53;6.05;;;3.70;;
79526;SDS011;68974;47.754;-3.364;2023-05-19T15:26:19;4.95;;;3.47;;
79526;SDS011;68974;47.754;-3.364;2023-05-19T15:28:45;5.45;;;3.67;;